createdAt,value
2022-07-29T00:01:44.233Z,95676.36
2022-07-29T00:04:14.128Z,95674.12
2022-07-29T00:06:42.829Z,95674.66
2022-07-29T00:09:11.311Z,95678.56
2022-07-29T00:11:39.446Z,95684.02
2022-07-29T00:14:08.193Z,95684.91
2022-07-29T00:16:36.787Z,95681.16
2022-07-29T00:19:05.236Z,95678.29
2022-07-29T00:21:36.090Z,95678.52
2022-07-29T00:24:04.655Z,95677.67
2022-07-29T00:26:33.790Z,95673.42
2022-07-29T00:29:32.642Z,95676.00
2022-07-29T00:31:52.887Z,95672.93
2022-07-29T00:34:39.975Z,95672.27
2022-07-29T00:37:08.543Z,95676.23
2022-07-29T00:39:36.636Z,95676.48
2022-07-29T00:42:06.150Z,95677.88
2022-07-29T00:44:42.501Z,95678.02
2022-07-29T00:47:12.626Z,95672.39
2022-07-29T00:49:42.320Z,95668.68
2022-07-29T00:52:12.213Z,95670.89
2022-07-29T00:54:44.595Z,95674.89
2022-07-29T00:57:13.642Z,95672.89
2022-07-29T00:59:42.087Z,95671.48
2022-07-29T01:02:10.447Z,95668.92
2022-07-29T01:04:38.957Z,95671.10
2022-07-29T01:07:08.355Z,95671.29
2022-07-29T01:09:45.981Z,95672.79
2022-07-29T01:12:23.592Z,95668.08
2022-07-29T01:14:53.385Z,95661.23
2022-07-29T01:17:29.937Z,95660.78
2022-07-29T01:20:07.629Z,95656.27
2022-07-29T01:22:35.698Z,95651.85
2022-07-29T01:25:19.865Z,95650.32
2022-07-29T01:28:13.136Z,95645.58
2022-07-29T01:30:46.017Z,95640.83
2022-07-29T01:33:37.384Z,95638.47
2022-07-29T01:36:13.165Z,95636.35
2022-07-29T01:38:44.157Z,95630.40
2022-07-29T01:41:18.695Z,95630.44
2022-07-29T01:44:02.630Z,95625.14
2022-07-29T01:46:36.009Z,95624.64
2022-07-29T01:49:16.285Z,95629.89
2022-07-29T01:52:01.199Z,95623.02
2022-07-29T01:54:32.545Z,95622.29
2022-07-29T01:57:02.925Z,95627.96
2022-07-29T01:59:32.925Z,95626.05
2022-07-29T02:02:03.057Z,95632.36
2022-07-29T02:04:34.985Z,95635.50
2022-07-29T02:07:07.110Z,95632.71
2022-07-29T02:09:38.019Z,95634.58
2022-07-29T02:12:08.643Z,95628.96
2022-07-29T02:14:43.997Z,95629.65
2022-07-29T02:17:14.624Z,95634.63
2022-07-29T02:19:46.078Z,95633.88
2022-07-29T02:22:15.930Z,95637.92
2022-07-29T02:24:45.548Z,95636.30
2022-07-29T02:27:15.551Z,95638.79
2022-07-29T02:29:46.492Z,95641.59
2022-07-29T02:32:17.424Z,95644.95
2022-07-29T02:34:47.791Z,95637.10
2022-07-29T02:37:18.582Z,95635.23
2022-07-29T02:39:50.119Z,95637.41
2022-07-29T02:42:19.946Z,95641.77
2022-07-29T02:44:48.662Z,95647.23
2022-07-29T02:47:41.797Z,95637.48
2022-07-29T02:50:18.922Z,95632.38
2022-07-29T02:53:10.290Z,95637.64
2022-07-29T02:55:43.516Z,95632.55
2022-07-29T02:58:29.717Z,95633.73
2022-07-29T03:01:04.426Z,95642.06
2022-07-29T03:03:38.493Z,95645.89
2022-07-29T03:06:08.736Z,95645.68
2022-07-29T03:08:59.070Z,95650.64
2022-07-29T03:11:42.302Z,95650.09
2022-07-29T03:14:19.516Z,95647.39
2022-07-29T03:16:49.008Z,95646.17
2022-07-29T03:19:18.584Z,95651.83
2022-07-29T03:21:47.599Z,95650.59
2022-07-29T03:24:30.432Z,95652.66
2022-07-29T03:26:59.130Z,95653.05
2022-07-29T03:29:33.576Z,95650.22
2022-07-29T03:32:07.900Z,95651.45
2022-07-29T03:34:38.856Z,95649.65
2022-07-29T03:37:08.002Z,95650.95
2022-07-29T03:39:42.622Z,95656.30
2022-07-29T03:42:15.273Z,95664.60
2022-07-29T03:44:47.033Z,95668.02
2022-07-29T03:47:18.792Z,95671.52
2022-07-29T03:49:53.317Z,95673.61
2022-07-29T03:52:22.939Z,95671.87
2022-07-29T03:54:51.734Z,95674.52
2022-07-29T03:57:25.035Z,95672.66
2022-07-29T03:59:54.749Z,95669.39
2022-07-29T04:02:28.705Z,95668.92
2022-07-29T04:04:59.095Z,95669.46
2022-07-29T04:07:27.655Z,95669.94
2022-07-29T04:09:55.941Z,95669.34
2022-07-29T04:12:24.261Z,95674.89
2022-07-29T04:14:52.490Z,95679.45
2022-07-29T04:17:20.679Z,95677.66
2022-07-29T04:19:48.950Z,95673.80
2022-07-29T04:22:17.217Z,95667.74
2022-07-29T04:24:45.508Z,95666.52
2022-07-29T04:27:13.881Z,95664.05
2022-07-29T04:29:57.032Z,95666.15
2022-07-29T04:32:27.348Z,95666.12
2022-07-29T04:34:55.510Z,95665.66
2022-07-29T04:37:23.788Z,95665.46
2022-07-29T04:39:52.102Z,95662.06
2022-07-29T04:42:27.419Z,95659.98
2022-07-29T04:44:55.932Z,95663.98
2022-07-29T04:47:24.763Z,95665.83
2022-07-29T04:49:52.963Z,95669.19
2022-07-29T04:52:21.239Z,95665.85
2022-07-29T04:54:50.227Z,95665.23
2022-07-29T04:57:18.544Z,95662.17
2022-07-29T04:59:46.887Z,95662.48
2022-07-29T05:02:15.406Z,95664.60
2022-07-29T05:04:44.166Z,95667.30
2022-07-29T05:07:12.338Z,95672.95
2022-07-29T05:09:40.621Z,95675.95
2022-07-29T05:16:41.495Z,95675.70
2022-07-29T05:19:13.805Z,95678.40
2022-07-29T05:21:42.652Z,95677.21
2022-07-29T05:24:11.465Z,95681.24
2022-07-29T05:35:39.004Z,95679.56
2022-07-29T05:38:07.255Z,95676.16
2022-07-29T05:40:35.851Z,95673.55
2022-07-29T05:43:04.274Z,95671.30
2022-07-29T05:45:32.708Z,95674.21
2022-07-29T05:48:01.134Z,95674.20
2022-07-29T05:50:29.600Z,95675.00
2022-07-29T05:52:58.056Z,95675.25
2022-07-29T05:55:26.635Z,95669.70
2022-07-29T05:57:55.119Z,95669.51
2022-07-29T06:00:23.742Z,95667.63
2022-07-29T06:02:52.598Z,95668.04
2022-07-29T06:05:21.183Z,95664.63
2022-07-29T06:07:50.661Z,95667.31
2022-07-29T06:10:20.301Z,95669.23
2022-07-29T06:12:52.304Z,95669.60
2022-07-29T06:15:20.676Z,95669.13
2022-07-29T06:17:59.685Z,95671.75
2022-07-29T06:20:31.536Z,95670.83
2022-07-29T06:23:00.976Z,95669.13
2022-07-29T06:25:33.440Z,95665.91
2022-07-29T06:28:02.527Z,95663.56
2022-07-29T06:30:30.955Z,95662.23
2022-07-29T06:32:59.519Z,95660.02
2022-07-29T06:35:41.053Z,95660.06
2022-07-29T06:38:30.950Z,95656.59
2022-07-29T06:41:18.486Z,95653.55
2022-07-29T06:43:51.854Z,95654.67
2022-07-29T06:46:23.663Z,95653.66
2022-07-29T06:48:53.345Z,95655.55
2022-07-29T06:51:23.836Z,95655.98
2022-07-29T06:53:59.500Z,95655.50
2022-07-29T06:56:39.151Z,95660.56
2022-07-29T06:59:13.709Z,95658.55
2022-07-29T07:01:43.136Z,95656.33
2022-07-29T07:04:13.014Z,95659.79
2022-07-29T07:06:41.954Z,95657.73
2022-07-29T07:09:10.213Z,95659.55
2022-07-29T07:11:38.488Z,95659.25
2022-07-29T07:14:06.861Z,95655.73
2022-07-29T07:16:35.095Z,95659.06
2022-07-29T07:19:03.554Z,95660.96
2022-07-29T07:21:31.792Z,95656.21
2022-07-29T07:24:01.756Z,95663.71
2022-07-29T07:26:30.096Z,95662.96
2022-07-29T07:28:58.525Z,95666.98
2022-07-29T07:31:26.940Z,95666.74
2022-07-29T07:33:55.345Z,95664.36
2022-07-29T07:36:24.548Z,95662.12
2022-07-29T07:38:52.810Z,95661.83
2022-07-29T07:41:22.823Z,95660.95
2022-07-29T07:43:50.970Z,95662.02
2022-07-29T07:46:19.206Z,95664.48
2022-07-29T07:48:47.370Z,95669.54
2022-07-29T07:51:15.518Z,95666.16
2022-07-29T07:53:43.681Z,95660.90
2022-07-29T07:56:12.828Z,95663.19
2022-07-29T07:58:41.336Z,95661.11
2022-07-29T08:01:10.756Z,95666.41
2022-07-29T08:03:40.029Z,95667.45
2022-07-29T08:06:08.900Z,95667.69
2022-07-29T08:08:37.027Z,95670.37
2022-07-29T08:11:09.542Z,95674.39
2022-07-29T08:13:39.631Z,95674.32
2022-07-29T08:16:16.718Z,95676.89
2022-07-29T08:18:46.578Z,95675.84
2022-07-29T08:21:16.455Z,95678.06
2022-07-29T08:23:59.703Z,95683.84
2022-07-29T08:26:28.998Z,95684.42
2022-07-29T08:28:57.228Z,95677.87
2022-07-29T08:31:25.626Z,95680.97
2022-07-29T08:33:53.982Z,95677.80
2022-07-29T08:40:55.394Z,95667.90
2022-07-29T08:43:24.225Z,95673.17
2022-07-29T08:45:53.182Z,95669.99
2022-07-29T08:48:23.848Z,95670.14
2022-07-29T08:50:57.094Z,95665.36
2022-07-29T08:53:28.454Z,95660.95
2022-07-29T08:55:57.231Z,95659.06
2022-07-29T08:58:26.875Z,95654.98
2022-07-29T09:00:57.987Z,95649.73
2022-07-29T09:03:31.758Z,95651.52
2022-07-29T09:06:00.492Z,95657.31
2022-07-29T09:08:29.312Z,95660.63
2022-07-29T09:10:57.471Z,95655.11
2022-07-29T09:13:26.010Z,95652.48
2022-07-29T09:15:55.060Z,95650.00
2022-07-29T09:18:43.431Z,95649.91
2022-07-29T09:21:34.258Z,95647.77
2022-07-29T09:24:11.568Z,95648.17
2022-07-29T09:26:47.258Z,95645.12
2022-07-29T09:29:17.811Z,95646.04
2022-07-29T09:31:48.187Z,95645.85
2022-07-29T09:34:29.578Z,95643.77
2022-07-29T09:36:58.426Z,95641.98
2022-07-29T09:39:47.363Z,95638.20
2022-07-29T09:42:29.349Z,95632.75
2022-07-29T09:44:57.607Z,95630.67
2022-07-29T09:47:42.275Z,95631.55
2022-07-29T09:54:29.218Z,95620.83
2022-07-29T09:56:57.481Z,95624.57
2022-07-29T09:59:27.588Z,95623.13
2022-07-29T10:01:56.644Z,95625.66
2022-07-29T10:04:25.157Z,95618.20
2022-07-29T10:07:04.740Z,95611.56
2022-07-29T10:09:35.216Z,95610.13
2022-07-29T10:12:14.776Z,95602.67
2022-07-29T10:14:43.966Z,95602.77
2022-07-29T10:17:12.355Z,95603.93
2022-07-29T10:19:40.988Z,95603.20
2022-07-29T10:22:11.414Z,95599.34
2022-07-29T10:24:40.286Z,95592.56
2022-07-29T10:27:10.308Z,95591.92
2022-07-29T10:29:38.570Z,95591.77
2022-07-29T10:32:09.563Z,95590.14
2022-07-29T10:35:15.485Z,95590.99
2022-07-29T10:37:56.966Z,95592.42
2022-07-29T10:41:32.232Z,95587.80
2022-07-29T10:44:23.253Z,95596.52
2022-07-29T10:46:53.420Z,95608.55
2022-07-29T10:49:30.305Z,95610.77
2022-07-29T10:52:06.568Z,95604.96
2022-07-29T10:54:37.802Z,95596.39
2022-07-29T10:57:53.227Z,95593.42
2022-07-29T11:00:16.904Z,95590.84
2022-07-29T11:02:50.186Z,95604.60
2022-07-29T11:05:20.812Z,95614.80
2022-07-29T11:08:12.489Z,95619.69
2022-07-29T11:10:50.556Z,95617.65
2022-07-29T11:13:49.360Z,95617.39
2022-07-29T11:16:20.117Z,95618.14
2022-07-29T11:19:11.412Z,95621.80
2022-07-29T11:21:54.145Z,95618.66
2022-07-29T11:24:35.936Z,95609.91
2022-07-29T11:27:19.925Z,95605.66
2022-07-29T11:29:55.542Z,95605.74
2022-07-29T11:32:29.199Z,95619.16
2022-07-29T11:35:17.208Z,95627.54
2022-07-29T11:37:52.735Z,95631.10
2022-07-29T11:40:26.224Z,95630.58
2022-07-29T11:42:55.062Z,95630.35
2022-07-29T11:45:42.534Z,95635.31
2022-07-29T11:51:13.322Z,95642.55
2022-07-29T11:53:48.010Z,95649.25
2022-07-29T11:56:25.742Z,95650.14
2022-07-29T11:59:08.597Z,95653.04
2022-07-29T12:01:37.329Z,95651.84
2022-07-29T12:04:07.805Z,95652.63
2022-07-29T12:06:36.435Z,95649.95
2022-07-29T12:09:11.245Z,95649.15
2022-07-29T12:11:47.332Z,95645.14
2022-07-29T12:14:30.289Z,95632.77
2022-07-29T12:16:59.741Z,95627.98
2022-07-29T12:19:28.603Z,95626.83
2022-07-29T12:22:02.241Z,95622.44
2022-07-29T12:24:44.887Z,95620.55
2022-07-29T12:27:13.239Z,95616.39
2022-07-29T12:29:46.298Z,95618.23
2022-07-29T12:32:19.483Z,95617.58
2022-07-29T12:34:48.751Z,95622.40
2022-07-29T12:37:17.658Z,95623.38
2022-07-29T12:39:46.611Z,95625.67
2022-07-29T12:42:18.461Z,95625.45
2022-07-29T12:44:49.110Z,95618.37
2022-07-29T12:47:19.320Z,95619.17
2022-07-29T12:49:49.050Z,95615.73
2022-07-29T12:52:27.560Z,95609.11
2022-07-29T12:54:56.043Z,95607.55
2022-07-29T12:57:25.243Z,95600.73
2022-07-29T13:00:04.897Z,95592.95
2022-07-29T13:02:33.331Z,95594.60
2022-07-29T13:05:03.407Z,95590.70
2022-07-29T13:08:29.574Z,95596.77
2022-07-29T13:10:24.073Z,95591.84
2022-07-29T13:13:16.573Z,95594.95
2022-07-29T13:15:48.626Z,95605.58
2022-07-29T13:18:34.949Z,95606.84
2022-07-29T13:21:18.841Z,95605.73
2022-07-29T13:23:47.397Z,95599.85
2022-07-29T13:26:19.532Z,95599.59
2022-07-29T13:28:47.835Z,95597.84
2022-07-29T13:31:16.362Z,95594.92
2022-07-29T13:33:44.694Z,95592.27
2022-07-29T13:36:13.057Z,95587.92
2022-07-29T13:38:41.225Z,95584.83
2022-07-29T13:41:09.612Z,95581.15
2022-07-29T13:43:38.921Z,95577.05
2022-07-29T13:46:07.058Z,95571.30
2022-07-29T13:48:35.607Z,95570.75
2022-07-29T13:51:04.061Z,95567.16
2022-07-29T13:53:32.437Z,95571.58
2022-07-29T13:56:01.124Z,95576.56
2022-07-29T13:58:29.499Z,95578.92
2022-07-29T14:00:58.364Z,95591.52
2022-07-29T14:03:26.984Z,95593.96
2022-07-29T14:05:55.912Z,95594.80
2022-07-29T14:08:24.211Z,95600.08
2022-07-29T14:10:52.425Z,95601.16
2022-07-29T14:13:25.245Z,95599.02
2022-07-29T14:15:54.214Z,95600.56
2022-07-29T14:18:22.585Z,95604.27
2022-07-29T14:20:52.219Z,95608.45
2022-07-29T14:23:20.515Z,95606.23
2022-07-29T14:25:49.453Z,95607.41
2022-07-29T14:28:18.080Z,95602.23
2022-07-29T14:30:46.450Z,95602.81
2022-07-29T14:33:15.448Z,95600.25
2022-07-29T14:35:43.944Z,95601.42
2022-07-29T14:38:12.504Z,95600.15
2022-07-29T14:40:40.776Z,95601.42
2022-07-29T14:43:10.210Z,95598.95
2022-07-29T14:45:38.693Z,95593.64
2022-07-29T14:48:07.501Z,95583.75
2022-07-29T14:50:36.163Z,95580.08
2022-07-29T14:53:04.844Z,95573.61
2022-07-29T14:55:33.130Z,95562.31
2022-07-29T14:58:08.945Z,95550.02
2022-07-29T15:00:40.644Z,95538.48
2022-07-29T15:03:11.647Z,95532.25
2022-07-29T15:05:40.356Z,95527.88
2022-07-29T15:08:09.304Z,95526.77
2022-07-29T15:10:39.300Z,95527.69
2022-07-29T15:13:07.543Z,95533.38
2022-07-29T15:15:35.647Z,95532.41
2022-07-29T15:18:04.181Z,95533.34
2022-07-29T15:20:32.350Z,95537.52
2022-07-29T15:23:00.481Z,95540.39
2022-07-29T15:25:28.730Z,95549.33
2022-07-29T15:28:01.354Z,95552.30
2022-07-29T15:30:34.407Z,95546.91
2022-07-29T15:33:04.595Z,95548.77
2022-07-29T15:35:33.650Z,95548.78
2022-07-29T15:38:09.688Z,95550.56
2022-07-29T15:40:42.338Z,95545.48
2022-07-29T15:43:10.788Z,95534.55
2022-07-29T15:46:06.768Z,95524.38
2022-07-29T15:48:39.496Z,95521.70
2022-07-29T15:51:07.936Z,95529.30
2022-07-29T15:53:36.055Z,95523.80
2022-07-29T15:56:04.703Z,95515.01
2022-07-29T15:58:32.982Z,95513.17
2022-07-29T16:01:01.311Z,95506.40
2022-07-29T16:03:29.804Z,95504.20
2022-07-29T16:05:58.123Z,95497.10
2022-07-29T16:08:26.503Z,95488.38
2022-07-29T16:10:54.878Z,95487.60
2022-07-29T16:13:24.084Z,95489.17
2022-07-29T16:16:02.289Z,95494.98
2022-07-29T16:18:31.083Z,95500.69
2022-07-29T16:20:59.258Z,95504.83
2022-07-29T16:23:27.547Z,95508.79
2022-07-29T16:26:00.848Z,95507.56
2022-07-29T16:28:31.075Z,95509.91
2022-07-29T16:30:59.875Z,95520.09
2022-07-29T16:33:28.946Z,95524.80
2022-07-29T16:36:18.527Z,95523.59
2022-07-29T16:38:47.637Z,95528.34
2022-07-29T16:41:16.105Z,95532.29
2022-07-29T16:43:44.573Z,95535.95
2022-07-29T16:46:18.496Z,95540.95
2022-07-29T16:48:48.691Z,95542.36
2022-07-29T16:51:17.205Z,95549.25
2022-07-29T16:53:45.809Z,95546.31
2022-07-29T16:56:18.280Z,95544.81
2022-07-29T16:58:46.541Z,95543.38
2022-07-29T17:01:15.036Z,95549.66
2022-07-29T17:04:02.224Z,95552.67
2022-07-29T17:06:30.646Z,95554.54
2022-07-29T17:08:59.013Z,95558.19
2022-07-29T17:11:52.498Z,95559.30
2022-07-29T17:14:15.942Z,95557.34
2022-07-29T17:17:00.340Z,95557.39
2022-07-29T17:19:31.145Z,95558.05
2022-07-29T17:22:07.030Z,95553.92
2022-07-29T17:24:38.953Z,95553.82
2022-07-29T17:27:09.898Z,95546.09
2022-07-29T17:29:39.300Z,95545.95
2022-07-29T17:32:09.317Z,95551.09
2022-07-29T17:34:39.342Z,95553.64
2022-07-29T17:37:10.801Z,95563.82
2022-07-29T17:39:41.395Z,95564.52
2022-07-29T17:42:13.391Z,95564.25
2022-07-29T17:44:42.802Z,95562.07
2022-07-29T17:47:15.951Z,95565.23
2022-07-29T17:49:46.125Z,95568.83
2022-07-29T17:52:14.389Z,95574.84
2022-07-29T17:54:42.585Z,95578.31
2022-07-29T17:57:10.690Z,95575.96
2022-07-29T17:59:38.924Z,95577.91
2022-07-29T18:02:07.552Z,95580.47
2022-07-29T18:04:35.779Z,95582.95
2022-07-29T18:07:04.199Z,95582.39
2022-07-29T18:09:32.550Z,95580.17
2022-07-29T18:12:00.830Z,95581.27
2022-07-29T18:14:29.023Z,95576.89
2022-07-29T18:16:57.535Z,95574.77
2022-07-29T18:19:25.950Z,95572.98
2022-07-29T18:21:56.572Z,95569.13
2022-07-29T18:24:27.956Z,95566.17
2022-07-29T18:26:56.921Z,95562.10
2022-07-29T18:29:25.646Z,95558.41
2022-07-29T18:31:53.827Z,95560.63
2022-07-29T18:34:22.319Z,95563.05
2022-07-29T18:36:50.460Z,95566.08
2022-07-29T18:39:21.186Z,95567.52
2022-07-29T18:41:52.795Z,95566.40
2022-07-29T18:44:22.732Z,95563.64
2022-07-29T18:46:52.675Z,95566.27
2022-07-29T18:49:21.756Z,95569.70
2022-07-29T18:51:50.685Z,95567.61
2022-07-29T18:54:19.878Z,95567.25
2022-07-29T18:56:48.700Z,95572.88
2022-07-29T18:59:22.656Z,95572.16
2022-07-29T19:01:51.697Z,95568.79
2022-07-29T19:04:20.088Z,95564.52
2022-07-29T19:06:48.534Z,95563.84
2022-07-29T19:09:17.747Z,95568.21
2022-07-29T19:11:46.246Z,95572.06
2022-07-29T19:14:14.509Z,95580.25
2022-07-29T19:16:42.778Z,95582.06
2022-07-29T19:19:11.061Z,95581.75
2022-07-29T19:21:39.343Z,95584.23
2022-07-29T19:24:12.310Z,95586.63
2022-07-29T19:26:46.985Z,95587.61
2022-07-29T19:29:16.155Z,95597.36
2022-07-29T19:31:44.453Z,95600.89
2022-07-29T19:34:13.042Z,95602.80
2022-07-29T19:36:42.119Z,95602.80
2022-07-29T19:39:10.618Z,95602.17
2022-07-29T19:41:39.021Z,95602.20
2022-07-29T19:44:07.088Z,95603.26
2022-07-29T19:46:35.698Z,95604.67
2022-07-29T19:49:06.836Z,95600.84
2022-07-29T19:51:35.273Z,95599.52
2022-07-29T19:54:03.774Z,95598.88
2022-07-29T19:56:32.231Z,95600.73
2022-07-29T19:59:01.802Z,95596.91
2022-07-29T20:01:32.387Z,95598.19
2022-07-29T20:04:00.958Z,95598.34
2022-07-29T20:06:29.295Z,95595.38
2022-07-29T20:08:58.990Z,95592.66
2022-07-29T20:11:29.849Z,95593.67
2022-07-29T20:13:58.267Z,95591.78
2022-07-29T20:16:26.706Z,95586.31
2022-07-29T20:18:55.140Z,95585.92
2022-07-29T20:21:23.281Z,95581.94
2022-07-29T20:23:51.510Z,95576.77
2022-07-29T20:26:20.076Z,95577.95
2022-07-29T20:28:49.593Z,95579.94
2022-07-29T20:31:19.256Z,95579.52
2022-07-29T20:33:48.692Z,95585.70
2022-07-29T20:36:17.291Z,95584.83
2022-07-29T20:38:45.557Z,95581.73
2022-07-29T20:41:14.481Z,95574.50
2022-07-29T20:43:43.546Z,95563.39
2022-07-29T20:46:11.883Z,95562.11
2022-07-29T20:48:41.113Z,95558.57
2022-07-29T20:51:09.411Z,95563.72
2022-07-29T20:53:40.043Z,95568.90
2022-07-29T20:56:08.746Z,95577.41
2022-07-29T20:58:37.011Z,95583.46
2022-07-29T21:01:06.366Z,95578.20
2022-07-29T21:03:34.717Z,95571.18
2022-07-29T21:06:03.793Z,95569.95
2022-07-29T21:08:32.404Z,95567.05
2022-07-29T21:11:00.760Z,95569.49
2022-07-29T21:13:28.808Z,95574.45
2022-07-29T21:16:04.265Z,95572.73
2022-07-29T21:18:37.586Z,95571.90
2022-07-29T21:21:06.051Z,95575.00
2022-07-29T21:23:34.681Z,95575.35
2022-07-29T21:26:04.272Z,95572.29
2022-07-29T21:28:40.932Z,95569.39
2022-07-29T21:31:16.304Z,95570.75
2022-07-29T21:33:46.780Z,95573.85
2022-07-29T21:36:46.847Z,95574.94
2022-07-29T21:39:07.291Z,95574.73
2022-07-29T21:41:36.011Z,95572.77
2022-07-29T21:44:04.180Z,95567.98
2022-07-29T21:46:32.619Z,95565.02
2022-07-29T21:49:00.959Z,95562.99
2022-07-29T21:51:29.326Z,95561.25
2022-07-29T21:53:57.942Z,95559.50
2022-07-29T21:56:27.845Z,95560.58
2022-07-29T21:58:56.415Z,95563.10
2022-07-29T22:01:24.922Z,95567.08
2022-07-29T22:03:53.308Z,95566.75
2022-07-29T22:06:21.886Z,95563.84
2022-07-29T22:08:50.145Z,95557.79
2022-07-29T22:11:18.829Z,95555.55
2022-07-29T22:13:48.862Z,95555.63
2022-07-29T22:16:17.842Z,95549.05
2022-07-29T22:18:47.490Z,95552.11
2022-07-29T22:21:15.966Z,95548.35
2022-07-29T22:23:44.207Z,95544.23
2022-07-29T22:26:12.728Z,95546.95
2022-07-29T22:28:40.974Z,95553.65
2022-07-29T22:31:09.391Z,95546.25
2022-07-29T22:33:37.949Z,95548.84
2022-07-29T22:36:06.834Z,95550.45
2022-07-29T22:38:35.208Z,95554.80
2022-07-29T22:41:03.505Z,95550.61
2022-07-29T22:43:31.682Z,95552.39
2022-07-29T22:45:59.987Z,95551.80
2022-07-29T22:48:28.085Z,95550.70
2022-07-29T22:50:56.402Z,95546.54
2022-07-29T22:53:24.786Z,95546.85
2022-07-29T22:55:54.903Z,95541.71
2022-07-29T22:58:23.111Z,95539.02
2022-07-29T23:00:51.389Z,95540.08
2022-07-29T23:03:22.048Z,95535.73
2022-07-29T23:05:51.943Z,95535.20
2022-07-29T23:08:20.833Z,95532.95
2022-07-29T23:10:49.283Z,95536.55
2022-07-29T23:13:17.662Z,95534.03
2022-07-29T23:15:46.043Z,95534.48
2022-07-29T23:18:14.544Z,95537.48
2022-07-29T23:20:43.985Z,95533.61
2022-07-29T23:23:12.313Z,95530.06
2022-07-29T23:25:40.705Z,95528.73
2022-07-29T23:28:11.664Z,95526.62
2022-07-29T23:30:42.833Z,95521.81
2022-07-29T23:33:11.161Z,95522.14
2022-07-29T23:35:39.554Z,95517.25
2022-07-29T23:38:08.017Z,95521.17
2022-07-29T23:40:36.350Z,95521.70
2022-07-29T23:43:08.751Z,95514.23
2022-07-29T23:45:44.650Z,95508.91
2022-07-29T23:48:16.908Z,95509.25
2022-07-29T23:50:45.214Z,95510.80
2022-07-29T23:53:13.462Z,95514.64
2022-07-29T23:55:41.738Z,95512.05
2022-07-29T23:58:10.347Z,95510.56
